createdAt,value
2019-05-05T00:00:44.525Z,16.90
2019-05-05T00:03:17.851Z,17.70
2019-05-05T00:05:49.027Z,18.85
2019-05-05T00:08:18.349Z,20.88
2019-05-05T00:10:57.004Z,18.98
2019-05-05T00:13:36.731Z,20.80
2019-05-05T00:16:16.607Z,21.50
2019-05-05T00:18:45.879Z,23.47
2019-05-05T00:21:15.272Z,29.42
2019-05-05T00:23:45.169Z,31.02
2019-05-05T00:26:15.039Z,40.83
2019-05-05T00:28:44.889Z,47.08
2019-05-05T00:31:15.079Z,45.67
2019-05-05T00:33:44.964Z,59.88
2019-05-05T00:36:14.661Z,56.05
2019-05-05T00:38:44.557Z,52.17
2019-05-05T00:41:14.839Z,40.03
2019-05-05T00:43:45.123Z,39.25
2019-05-05T00:46:16.602Z,38.25
2019-05-05T00:48:47.358Z,41.70
2019-05-05T00:51:16.644Z,37.85
2019-05-05T00:53:46.026Z,39.15
2019-05-05T00:56:15.416Z,40.35
2019-05-05T00:58:46.397Z,35.38
2019-05-05T01:01:20.077Z,34.60
2019-05-05T01:03:49.399Z,29.20
2019-05-05T01:06:20.307Z,36.08
2019-05-05T01:08:49.652Z,35.15
2019-05-05T01:11:19.309Z,34.73
2019-05-05T01:13:48.629Z,34.03
2019-05-05T01:16:18.012Z,30.08
2019-05-05T01:18:47.372Z,29.67
2019-05-05T01:21:16.628Z,29.57
2019-05-05T01:23:45.957Z,29.02
2019-05-05T01:26:15.403Z,35.15
2019-05-05T01:28:44.848Z,40.52
2019-05-05T01:31:15.789Z,30.50
2019-05-05T01:33:54.191Z,29.95
2019-05-05T01:36:24.278Z,29.27
2019-05-05T01:38:57.925Z,29.57
2019-05-05T01:41:29.261Z,27.77
2019-05-05T01:43:58.670Z,30.57
2019-05-05T01:46:28.093Z,24.30
2019-05-05T01:48:57.528Z,20.90
2019-05-05T01:51:26.913Z,25.25
2019-05-05T01:53:56.261Z,21.30
2019-05-05T01:56:25.615Z,21.30
2019-05-05T01:58:55.652Z,21.55
2019-05-05T02:01:25.012Z,21.70
2019-05-05T02:03:54.999Z,18.87
2019-05-05T02:06:24.880Z,19.05
2019-05-05T02:08:54.986Z,19.05
2019-05-05T02:11:24.778Z,19.15
2019-05-05T02:13:54.678Z,18.50
2019-05-05T02:16:25.309Z,17.35
2019-05-05T02:18:54.942Z,16.87
2019-05-05T02:21:24.756Z,18.48
2019-05-05T02:23:54.904Z,17.20
2019-05-05T02:26:24.663Z,14.73
2019-05-05T02:28:55.691Z,16.80
2019-05-05T02:31:36.171Z,15.18
2019-05-05T02:34:05.663Z,15.65
2019-05-05T02:36:35.709Z,14.28
2019-05-05T02:39:07.557Z,18.65
2019-05-05T02:41:37.957Z,17.87
2019-05-05T02:44:07.327Z,18.15
2019-05-05T02:46:38.258Z,12.37
2019-05-05T02:49:07.569Z,15.00
2019-05-05T02:51:36.810Z,14.00
2019-05-05T02:54:06.251Z,11.35
2019-05-05T02:56:49.592Z,10.58
2019-05-05T02:59:20.809Z,10.35
2019-05-05T03:01:57.712Z,11.95
2019-05-05T03:04:27.161Z,11.43
2019-05-05T03:06:56.477Z,9.90
2019-05-05T03:09:25.732Z,10.15
2019-05-05T03:11:55.397Z,11.10
2019-05-05T03:14:24.791Z,11.33
2019-05-05T03:16:54.307Z,11.75
2019-05-05T03:19:24.435Z,7.50
2019-05-05T03:21:54.567Z,9.45
2019-05-05T03:24:23.940Z,13.98
2019-05-05T03:26:53.771Z,9.88
2019-05-05T03:29:24.334Z,7.22
2019-05-05T03:31:56.344Z,7.83
2019-05-05T03:34:26.659Z,5.90
2019-05-05T03:36:55.915Z,6.58
2019-05-05T03:39:31.092Z,7.70
2019-05-05T03:42:03.610Z,7.17
2019-05-05T03:44:34.663Z,6.67
2019-05-05T03:47:04.065Z,6.05
2019-05-05T03:49:33.850Z,7.42
2019-05-05T03:52:04.830Z,9.00
2019-05-05T03:54:34.398Z,6.55
2019-05-05T03:57:10.132Z,8.85
2019-05-05T03:59:41.118Z,5.87
2019-05-05T04:02:15.182Z,10.53
2019-05-05T04:04:46.078Z,7.75
2019-05-05T04:07:15.462Z,5.60
2019-05-05T04:09:46.472Z,9.15
2019-05-05T04:12:15.785Z,5.87
2019-05-05T04:14:45.473Z,6.20
2019-05-05T04:17:16.778Z,7.12
2019-05-05T04:19:54.256Z,5.22
2019-05-05T04:22:23.873Z,6.67
2019-05-05T04:24:54.129Z,6.37
2019-05-05T04:27:23.975Z,4.45
2019-05-05T04:29:54.509Z,5.53
2019-05-05T04:32:24.504Z,7.17
2019-05-05T04:34:54.412Z,6.28
2019-05-05T04:37:24.072Z,4.67
2019-05-05T04:39:53.801Z,6.85
2019-05-05T04:42:24.509Z,7.17
2019-05-05T04:44:53.991Z,12.37
2019-05-05T04:47:25.125Z,6.20
2019-05-05T04:50:14.512Z,8.18
2019-05-05T04:52:43.599Z,19.42
2019-05-05T04:55:13.832Z,36.63
2019-05-05T04:57:43.793Z,20.40
2019-05-05T05:00:13.773Z,9.60
2019-05-05T05:02:54.551Z,16.00
2019-05-05T05:05:27.877Z,10.03
2019-05-05T05:07:58.092Z,10.30
2019-05-05T05:10:27.632Z,5.90
2019-05-05T05:12:56.802Z,4.75
2019-05-05T05:15:25.964Z,7.28
2019-05-05T05:18:04.078Z,8.73
2019-05-05T05:20:34.066Z,6.95
2019-05-05T05:23:03.756Z,11.95
2019-05-05T05:25:34.711Z,7.37
2019-05-05T05:28:04.393Z,8.58
2019-05-05T05:30:34.680Z,11.12
2019-05-05T05:33:04.942Z,7.90
2019-05-05T05:35:34.119Z,7.37
2019-05-05T05:38:04.698Z,8.73
2019-05-05T05:40:41.482Z,10.40
2019-05-05T05:43:13.924Z,9.55
2019-05-05T05:45:56.691Z,6.95
2019-05-05T05:51:14.648Z,16.12
2019-05-05T05:53:44.323Z,8.28
2019-05-05T05:56:13.613Z,3.50
2019-05-05T05:58:44.221Z,7.45
2019-05-05T06:01:14.689Z,8.68
2019-05-05T06:03:44.418Z,8.33
2019-05-05T06:06:15.026Z,15.50
2019-05-05T06:08:44.248Z,10.82
2019-05-05T06:11:13.745Z,9.85
2019-05-05T06:13:44.444Z,8.50
2019-05-05T06:16:14.557Z,12.80
2019-05-05T06:18:43.906Z,14.73
2019-05-05T06:21:13.748Z,10.32
2019-05-05T06:23:43.843Z,9.40
2019-05-05T06:26:15.198Z,9.45
2019-05-05T06:28:44.737Z,11.33
2019-05-05T06:31:14.748Z,10.90
2019-05-05T06:33:43.997Z,6.90
2019-05-05T06:36:14.187Z,7.03
2019-05-05T06:38:43.817Z,6.05
2019-05-05T06:41:14.841Z,6.90
2019-05-05T06:43:45.650Z,6.62
2019-05-05T06:46:16.503Z,6.40
2019-05-05T06:48:45.687Z,8.33
2019-05-05T06:51:14.850Z,6.08
2019-05-05T06:53:44.329Z,4.50
2019-05-05T06:56:14.578Z,13.40
2019-05-05T06:58:44.792Z,5.53
2019-05-05T07:01:14.469Z,7.30
2019-05-05T07:03:43.931Z,4.70
2019-05-05T07:06:14.612Z,4.42
2019-05-05T07:08:44.116Z,3.92
2019-05-05T07:11:14.507Z,3.92
2019-05-05T07:13:44.415Z,5.67
2019-05-05T07:16:15.012Z,5.05
2019-05-05T07:18:44.775Z,4.40
2019-05-05T07:21:14.373Z,7.15
2019-05-05T07:23:44.576Z,5.78
2019-05-05T07:26:14.514Z,6.33
2019-05-05T07:28:44.950Z,5.15
2019-05-05T07:31:14.475Z,25.65
2019-05-05T07:33:43.954Z,13.72
2019-05-05T07:36:17.260Z,8.30
2019-05-05T07:38:48.315Z,24.40
2019-05-05T07:41:17.517Z,8.40
2019-05-05T07:43:46.783Z,7.45
2019-05-05T07:46:16.118Z,5.50
2019-05-05T07:48:45.299Z,4.90
2019-05-05T07:51:14.559Z,2.72
2019-05-05T07:53:44.419Z,5.15
2019-05-05T07:56:14.517Z,6.78
2019-05-05T07:58:44.068Z,4.35
2019-05-05T08:01:14.155Z,3.33
2019-05-05T08:03:44.532Z,3.42
2019-05-05T08:06:14.629Z,2.25
2019-05-05T08:08:44.455Z,2.60
2019-05-05T08:11:14.796Z,3.70
2019-05-05T08:13:45.812Z,3.92
2019-05-05T08:16:16.745Z,6.47
2019-05-05T08:19:03.969Z,2.65
2019-05-05T08:21:34.649Z,4.03
2019-05-05T08:24:08.740Z,3.90
2019-05-05T08:26:48.612Z,3.70
2019-05-05T08:29:37.518Z,4.53
2019-05-05T08:32:08.620Z,4.17
2019-05-05T08:34:38.007Z,4.58
2019-05-05T08:37:07.289Z,2.90
2019-05-05T08:39:36.542Z,3.52
2019-05-05T08:42:05.937Z,3.17
2019-05-05T08:44:35.315Z,7.83
2019-05-05T08:47:04.778Z,6.58
2019-05-05T08:49:34.772Z,4.17
2019-05-05T08:52:04.300Z,4.08
2019-05-05T08:54:34.395Z,2.95
2019-05-05T08:57:04.340Z,4.37
2019-05-05T08:59:33.877Z,2.58
2019-05-05T09:02:04.511Z,2.67
2019-05-05T09:04:34.110Z,8.48
2019-05-05T09:07:05.011Z,4.87
2019-05-05T09:09:34.682Z,4.33
2019-05-05T09:12:04.530Z,5.55
2019-05-05T09:14:34.662Z,7.62
2019-05-05T09:17:04.565Z,3.80
2019-05-05T09:19:34.523Z,4.92
2019-05-05T09:22:05.661Z,5.03
2019-05-05T09:24:53.648Z,4.40
2019-05-05T09:27:28.416Z,8.43
2019-05-05T09:29:57.941Z,5.35
2019-05-05T09:32:27.636Z,3.55
2019-05-05T09:34:56.904Z,4.22
2019-05-05T09:37:26.455Z,4.67
2019-05-05T09:39:56.279Z,5.08
2019-05-05T09:42:25.623Z,2.52
2019-05-05T09:44:55.043Z,4.30
2019-05-05T09:47:24.382Z,1.85
2019-05-05T09:49:54.967Z,5.55
2019-05-05T09:52:24.561Z,3.12
2019-05-05T09:54:54.393Z,4.03
2019-05-05T09:57:23.905Z,2.55
2019-05-05T09:59:57.442Z,3.17
2019-05-05T10:02:26.903Z,1.67
2019-05-05T10:04:56.230Z,4.20
2019-05-05T10:07:25.574Z,4.50
2019-05-05T10:09:55.805Z,2.08
2019-05-05T10:12:25.226Z,4.60
2019-05-05T10:14:54.700Z,5.00
2019-05-05T10:17:24.448Z,4.42
2019-05-05T10:19:54.701Z,2.85
2019-05-05T10:22:24.121Z,3.47
2019-05-05T10:24:57.567Z,5.12
2019-05-05T10:27:26.840Z,4.78
2019-05-05T10:29:56.143Z,3.67
2019-05-05T10:32:38.780Z,5.17
2019-05-05T10:37:41.215Z,2.55
2019-05-05T10:40:12.154Z,4.67
2019-05-05T10:42:50.320Z,3.60
2019-05-05T10:45:21.144Z,3.33
2019-05-05T10:47:51.401Z,3.65
2019-05-05T10:50:20.714Z,3.58
2019-05-05T10:52:50.049Z,3.47
2019-05-05T10:55:20.945Z,5.37
2019-05-05T10:57:50.314Z,2.75
2019-05-05T11:00:44.350Z,1.37
2019-05-05T11:03:15.013Z,2.60
2019-05-05T11:05:45.093Z,2.37
2019-05-05T11:08:15.125Z,4.75
2019-05-05T11:10:45.157Z,6.10
2019-05-05T11:13:14.579Z,7.12
2019-05-05T11:15:44.497Z,6.22
2019-05-05T11:18:14.936Z,3.20
2019-05-05T11:20:45.113Z,3.20
2019-05-05T11:23:15.220Z,1.75
2019-05-05T11:25:44.888Z,2.87
2019-05-05T11:28:14.290Z,7.78
2019-05-05T11:30:45.820Z,53.70
2019-05-05T11:33:16.789Z,15.63
2019-05-05T11:35:53.977Z,4.33
2019-05-05T11:38:24.723Z,2.72
2019-05-05T11:40:54.769Z,3.58
2019-05-05T11:43:24.800Z,7.53
2019-05-05T11:45:54.616Z,5.33
2019-05-05T11:48:24.179Z,2.62
2019-05-05T11:50:54.171Z,5.05
2019-05-05T11:53:25.098Z,7.70
2019-05-05T11:55:55.206Z,6.72
2019-05-05T11:58:25.006Z,6.28
2019-05-05T12:00:54.774Z,3.15
2019-05-05T12:03:24.179Z,3.37
2019-05-05T12:05:53.479Z,6.35
2019-05-05T12:08:23.875Z,5.62
2019-05-05T12:11:04.603Z,3.12
2019-05-05T12:13:34.030Z,5.12
2019-05-05T12:16:05.179Z,19.02
2019-05-05T12:18:34.616Z,8.65
2019-05-05T12:21:05.156Z,9.00
2019-05-05T12:23:34.641Z,3.05
2019-05-05T12:26:13.651Z,4.42
2019-05-05T12:28:47.309Z,6.15
2019-05-05T12:31:24.734Z,3.83
2019-05-05T12:33:54.952Z,6.37
2019-05-05T12:36:24.460Z,8.08
2019-05-05T12:38:54.562Z,4.85
2019-05-05T12:41:24.226Z,4.67
2019-05-05T12:43:54.863Z,21.75
2019-05-05T12:46:33.682Z,7.47
2019-05-05T12:49:04.909Z,7.92
2019-05-05T12:51:34.414Z,41.58
2019-05-05T12:54:04.628Z,6.50
2019-05-05T12:56:34.250Z,6.45
2019-05-05T12:59:05.342Z,5.62
2019-05-05T13:01:44.181Z,11.57
2019-05-05T13:04:14.112Z,11.78
2019-05-05T13:06:45.060Z,14.07
2019-05-05T13:09:16.134Z,5.87
2019-05-05T13:11:45.499Z,5.50
2019-05-05T13:14:14.834Z,8.60
2019-05-05T13:16:52.496Z,4.92
2019-05-05T13:19:24.229Z,2.80
2019-05-05T13:22:11.442Z,2.52
2019-05-05T13:24:53.992Z,5.50
2019-05-05T13:27:25.035Z,2.60
2019-05-05T13:29:54.542Z,2.42
2019-05-05T13:32:24.751Z,4.40
2019-05-05T13:34:54.612Z,6.53
2019-05-05T13:37:24.524Z,3.92
2019-05-05T13:39:54.035Z,4.92
2019-05-05T13:42:24.335Z,8.98
2019-05-05T13:44:58.334Z,7.28
2019-05-05T13:47:27.660Z,4.78
2019-05-05T13:49:58.604Z,6.75
2019-05-05T13:52:27.782Z,4.58
2019-05-05T13:54:57.112Z,2.17
2019-05-05T13:57:26.601Z,3.85
2019-05-05T13:59:55.934Z,5.65
2019-05-05T14:02:25.212Z,2.83
2019-05-05T14:04:54.526Z,7.47
2019-05-05T14:07:24.134Z,3.90
2019-05-05T14:09:54.944Z,13.68
2019-05-05T14:12:24.212Z,15.85
2019-05-05T14:14:54.588Z,16.48
2019-05-05T14:17:23.880Z,6.47
2019-05-05T14:20:02.507Z,13.50
2019-05-05T14:22:24.365Z,8.98
2019-05-05T14:25:01.229Z,3.77
2019-05-05T14:27:30.466Z,3.95
2019-05-05T14:30:10.262Z,8.45
2019-05-05T14:32:41.081Z,23.07
2019-05-05T14:35:20.777Z,30.17
2019-05-05T14:37:56.249Z,12.18
2019-05-05T14:40:25.698Z,26.75
2019-05-05T14:42:54.851Z,11.60
2019-05-05T14:45:24.114Z,8.30
2019-05-05T14:47:53.604Z,16.73
2019-05-05T14:50:24.242Z,9.93
2019-05-05T14:52:53.658Z,18.27
2019-05-05T14:55:22.874Z,13.93
2019-05-05T14:57:53.466Z,18.25
2019-05-05T15:00:24.415Z,6.67
2019-05-05T15:02:54.445Z,3.67
2019-05-05T15:05:37.711Z,6.03
2019-05-05T15:08:08.607Z,11.97
2019-05-05T15:10:55.660Z,5.75
2019-05-05T15:13:25.183Z,4.28
2019-05-05T15:15:54.432Z,4.42
2019-05-05T15:18:24.256Z,7.60
2019-05-05T15:20:54.644Z,8.25
2019-05-05T15:23:24.179Z,7.17
2019-05-05T15:25:54.013Z,16.20
2019-05-05T15:28:24.560Z,10.75
2019-05-05T15:30:54.443Z,11.60
2019-05-05T15:33:24.402Z,9.93
2019-05-05T15:35:54.277Z,11.22
2019-05-05T15:38:24.433Z,9.20
2019-05-05T15:40:54.700Z,5.05
2019-05-05T15:43:24.551Z,9.53
2019-05-05T15:45:54.136Z,32.38
2019-05-05T15:48:23.486Z,11.18
2019-05-05T15:50:54.654Z,8.35
2019-05-05T15:53:24.023Z,6.00
2019-05-05T15:55:54.030Z,8.58
2019-05-05T15:58:23.669Z,21.57
2019-05-05T16:00:53.823Z,8.93
2019-05-05T16:03:24.086Z,7.75
2019-05-05T16:05:54.336Z,7.95
2019-05-05T16:08:23.735Z,5.08
2019-05-05T16:10:54.647Z,4.92
2019-05-05T16:13:23.931Z,6.78
2019-05-05T16:16:14.560Z,9.13
2019-05-05T16:18:48.666Z,14.75
2019-05-05T16:21:23.629Z,14.68
2019-05-05T16:24:07.743Z,19.00
2019-05-05T16:26:37.277Z,13.28
2019-05-05T16:29:06.513Z,13.75
2019-05-05T16:31:35.932Z,8.15
2019-05-05T16:34:05.144Z,16.07
2019-05-05T16:36:34.404Z,13.22
2019-05-05T16:39:03.826Z,15.48
2019-05-05T16:41:34.065Z,7.30
2019-05-05T16:44:03.937Z,15.15
2019-05-05T16:46:34.136Z,48.17
2019-05-05T16:49:03.646Z,15.83
2019-05-05T16:51:40.046Z,20.23
2019-05-05T16:54:16.759Z,15.43
2019-05-05T16:56:46.199Z,20.50
2019-05-05T16:59:16.554Z,24.25
2019-05-05T17:01:46.041Z,42.17
2019-05-05T17:04:15.244Z,50.67
2019-05-05T17:06:45.843Z,44.25
2019-05-05T17:09:15.137Z,50.33
2019-05-05T17:11:45.959Z,36.42
2019-05-05T17:14:23.438Z,54.10
2019-05-05T17:16:54.560Z,75.50
2019-05-05T17:19:25.343Z,45.98
2019-05-05T17:22:08.206Z,46.75
2019-05-05T17:24:38.934Z,32.03
2019-05-05T17:27:08.148Z,90.45
2019-05-05T17:29:37.352Z,108.85
2019-05-05T17:32:06.646Z,97.27
2019-05-05T17:34:35.834Z,175.68
2019-05-05T17:37:05.018Z,658.60
2019-05-05T17:39:35.869Z,641.50
2019-05-05T17:42:15.728Z,615.17
2019-05-05T17:45:03.720Z,212.40
2019-05-05T17:47:40.634Z,160.65
2019-05-05T17:50:17.430Z,171.60
2019-05-05T17:52:48.245Z,108.25
2019-05-05T17:55:28.413Z,69.70
2019-05-05T17:58:02.620Z,729.23
2019-05-05T18:00:34.313Z,36.13
2019-05-05T18:03:04.895Z,29.30
2019-05-05T18:05:54.510Z,34.75
2019-05-05T18:08:37.752Z,34.40
2019-05-05T18:11:13.916Z,29.82
2019-05-05T18:13:44.879Z,26.60
2019-05-05T18:16:15.953Z,19.23
2019-05-05T18:18:45.129Z,14.55
2019-05-05T18:21:14.529Z,27.50
2019-05-05T18:23:44.041Z,18.52
2019-05-05T18:26:13.765Z,14.73
2019-05-05T18:28:44.768Z,19.92
2019-05-05T18:31:14.734Z,17.17
2019-05-05T18:33:43.919Z,22.82
2019-05-05T18:36:14.196Z,12.78
2019-05-05T18:38:44.431Z,14.68
2019-05-05T18:41:20.366Z,17.85
2019-05-05T18:43:50.655Z,11.90
2019-05-05T18:46:20.083Z,14.75
2019-05-05T18:48:49.489Z,17.50
2019-05-05T18:51:18.662Z,15.43
2019-05-05T18:53:47.910Z,13.75
2019-05-05T18:56:17.181Z,16.82
2019-05-05T18:58:46.496Z,15.15
2019-05-05T19:01:20.290Z,19.10
2019-05-05T19:04:04.193Z,16.35
2019-05-05T19:06:51.911Z,16.48
2019-05-05T19:09:24.738Z,20.55
2019-05-05T19:14:24.318Z,29.07
2019-05-05T19:16:55.679Z,30.05
2019-05-05T19:19:26.924Z,27.95
2019-05-05T19:22:06.401Z,22.95
2019-05-05T19:24:35.677Z,27.85
2019-05-05T19:27:04.927Z,40.88
2019-05-05T19:29:34.393Z,42.60
2019-05-05T19:32:04.183Z,38.92
2019-05-05T19:34:35.292Z,30.02
2019-05-05T19:37:04.342Z,26.73
2019-05-05T19:39:34.411Z,27.73
2019-05-05T19:42:04.867Z,19.27
2019-05-05T19:44:34.244Z,17.12
2019-05-05T19:47:07.542Z,13.78
2019-05-05T19:49:39.158Z,24.87
2019-05-05T19:52:07.724Z,18.87
2019-05-05T19:54:37.001Z,15.48
2019-05-05T19:57:06.168Z,14.60
2019-05-05T19:59:35.868Z,14.00
2019-05-05T20:02:06.407Z,13.85
2019-05-05T20:04:35.583Z,17.80
2019-05-05T20:07:04.862Z,16.77
2019-05-05T20:09:34.201Z,11.30
2019-05-05T20:12:04.008Z,17.92
2019-05-05T20:14:34.206Z,14.13
2019-05-05T20:17:05.250Z,13.58
2019-05-05T20:19:36.133Z,21.07
2019-05-05T20:22:05.312Z,14.73
2019-05-05T20:24:34.582Z,15.63
2019-05-05T20:27:04.581Z,15.08
2019-05-05T20:29:37.190Z,15.05
2019-05-05T20:32:05.022Z,14.78
2019-05-05T20:34:35.841Z,13.88
2019-05-05T20:37:14.166Z,15.50
2019-05-05T20:39:44.174Z,11.53
2019-05-05T20:42:14.875Z,9.03
2019-05-05T20:44:44.278Z,12.10
2019-05-05T20:47:13.493Z,11.45
2019-05-05T20:49:44.394Z,10.48
2019-05-05T20:52:14.215Z,12.05
2019-05-05T20:54:44.102Z,10.58
2019-05-05T20:57:13.661Z,13.70
2019-05-05T20:59:44.559Z,14.45
2019-05-05T21:02:13.985Z,13.08
2019-05-05T21:04:44.585Z,11.30
2019-05-05T21:07:14.111Z,7.05
2019-05-05T21:09:43.389Z,11.48
2019-05-05T21:12:13.850Z,12.73
2019-05-05T21:14:44.686Z,10.88
2019-05-05T21:17:14.434Z,13.95
2019-05-05T21:19:43.619Z,11.28
2019-05-05T21:22:30.665Z,14.95
2019-05-05T21:24:59.921Z,9.53
2019-05-05T21:27:29.225Z,9.75
2019-05-05T21:29:58.801Z,12.28
2019-05-05T21:32:28.052Z,9.43
2019-05-05T21:34:57.302Z,32.80
2019-05-05T21:37:26.562Z,19.55
2019-05-05T21:39:55.825Z,14.35
2019-05-05T21:42:25.407Z,10.53
2019-05-05T21:44:54.749Z,10.18
2019-05-05T21:47:24.177Z,14.45
2019-05-05T21:49:54.156Z,11.00
2019-05-05T21:52:41.735Z,10.68
2019-05-05T21:55:18.307Z,9.20
2019-05-05T21:58:00.940Z,6.28
2019-05-05T22:03:20.902Z,12.63
2019-05-05T22:05:50.145Z,10.73
2019-05-05T22:08:19.450Z,9.63
2019-05-05T22:10:48.605Z,8.45
2019-05-05T22:13:17.855Z,5.90
2019-05-05T22:15:47.110Z,7.65
2019-05-05T22:18:16.496Z,5.42
2019-05-05T22:20:47.943Z,6.78
2019-05-05T22:23:18.524Z,4.40
2019-05-05T22:25:47.824Z,5.45
2019-05-05T22:28:17.205Z,4.90
2019-05-05T22:30:46.515Z,4.75
2019-05-05T22:33:15.967Z,5.47
2019-05-05T22:35:45.294Z,5.22
2019-05-05T22:38:14.625Z,5.45
2019-05-05T22:40:44.167Z,4.97
2019-05-05T22:43:14.729Z,5.80
2019-05-05T22:45:45.028Z,6.87
2019-05-05T22:48:14.617Z,6.45
2019-05-05T22:50:44.060Z,6.83
2019-05-05T22:53:14.063Z,9.33
2019-05-05T22:55:46.920Z,11.00
2019-05-05T22:58:16.183Z,23.00
2019-05-05T23:00:45.416Z,15.48
2019-05-05T23:03:19.400Z,10.98
2019-05-05T23:05:50.273Z,18.90
2019-05-05T23:08:19.455Z,14.18
2019-05-05T23:10:48.685Z,7.65
2019-05-05T23:13:18.145Z,10.78
2019-05-05T23:15:51.828Z,10.32
2019-05-05T23:18:25.778Z,8.85
2019-05-05T23:20:59.312Z,5.22
2019-05-05T23:23:41.967Z,4.70
2019-05-05T23:28:44.397Z,5.30
2019-05-05T23:31:15.955Z,4.50
2019-05-05T23:33:44.822Z,9.48
2019-05-05T23:36:14.804Z,4.70
2019-05-05T23:38:44.935Z,5.70
2019-05-05T23:41:14.688Z,8.18
2019-05-05T23:43:45.111Z,9.38
2019-05-05T23:46:14.518Z,7.92
2019-05-05T23:48:44.219Z,4.58
2019-05-05T23:51:13.954Z,5.55
2019-05-05T23:53:44.437Z,6.05
2019-05-05T23:56:13.844Z,7.22
2019-05-05T23:58:44.144Z,4.62
